createdAt,value
2017-12-16T00:03:06.956Z,94130
2017-12-16T00:08:35.151Z,94128
2017-12-16T00:14:03.476Z,94136
2017-12-16T00:19:31.703Z,94126
2017-12-16T00:25:00.937Z,94132
2017-12-16T00:30:29.140Z,94129
2017-12-16T00:35:58.082Z,94127
2017-12-16T00:41:26.289Z,94117
2017-12-16T00:46:54.495Z,94124
2017-12-16T00:52:22.681Z,94129
2017-12-16T00:57:50.898Z,94138
2017-12-16T01:03:19.097Z,94131
2017-12-16T01:08:48.047Z,94135
2017-12-16T01:14:17.018Z,94141
2017-12-16T01:19:45.497Z,94130
2017-12-16T01:25:15.660Z,94150
2017-12-16T01:30:43.868Z,94153
2017-12-16T01:36:31.779Z,94151
2017-12-16T01:42:00.043Z,94155
2017-12-16T01:47:48.732Z,94161
2017-12-16T01:53:16.989Z,94155
2017-12-16T01:58:45.198Z,94153
2017-12-16T02:04:13.703Z,94161
2017-12-16T02:09:42.177Z,94166
2017-12-16T02:15:10.707Z,94163
2017-12-16T02:20:40.216Z,94173
2017-12-16T02:26:08.466Z,94160
2017-12-16T02:31:36.657Z,94166
2017-12-16T02:37:04.858Z,94162
2017-12-16T02:42:33.837Z,94181
2017-12-16T02:48:02.185Z,94176
2017-12-16T02:53:30.419Z,94179
2017-12-16T02:59:00.382Z,94188
2017-12-16T03:04:28.578Z,94201
2017-12-16T03:09:56.868Z,94211
2017-12-16T03:15:25.182Z,94216
2017-12-16T03:20:53.544Z,94222
2017-12-16T03:26:22.450Z,94225
2017-12-16T03:32:01.320Z,94234
2017-12-16T03:37:29.522Z,94248
2017-12-16T03:42:57.732Z,94257
2017-12-16T03:48:27.763Z,94268
2017-12-16T03:53:56.147Z,94270
2017-12-16T03:59:44.318Z,94271
2017-12-16T04:05:13.646Z,94271
2017-12-16T04:10:44.127Z,94278
2017-12-16T04:16:14.968Z,94285
2017-12-16T04:21:43.766Z,94289
2017-12-16T04:27:17.777Z,94292
2017-12-16T04:32:46.891Z,94298
2017-12-16T04:38:15.116Z,94296
2017-12-16T04:43:50.384Z,94296
2017-12-16T04:49:19.555Z,94294
2017-12-16T04:54:48.261Z,94305
2017-12-16T05:00:16.800Z,94308
2017-12-16T05:05:45.120Z,94320
2017-12-16T05:11:13.313Z,94308
2017-12-16T05:16:48.147Z,94321
2017-12-16T05:22:16.330Z,94318
2017-12-16T05:27:44.590Z,94327
2017-12-16T05:33:16.784Z,94347
2017-12-16T05:38:45.964Z,94359
2017-12-16T05:44:14.145Z,94360
2017-12-16T05:49:42.385Z,94376
2017-12-16T05:55:10.582Z,94385
2017-12-16T06:00:38.790Z,94390
2017-12-16T06:06:18.985Z,94393
2017-12-16T06:11:47.171Z,94403
2017-12-16T06:17:15.577Z,94408
2017-12-16T06:22:43.752Z,94411
2017-12-16T06:28:11.924Z,94412
2017-12-16T06:33:54.091Z,94417
2017-12-16T06:39:22.276Z,94423
2017-12-16T06:44:51.423Z,94434
2017-12-16T06:50:19.618Z,94439
2017-12-16T06:55:47.848Z,94449
2017-12-16T07:01:16.713Z,94448
2017-12-16T07:06:44.893Z,94455
2017-12-16T07:12:13.115Z,94460
2017-12-16T07:17:43.028Z,94469
2017-12-16T07:23:11.218Z,94468
2017-12-16T07:28:39.459Z,94470
2017-12-16T07:34:07.643Z,94482
2017-12-16T07:39:36.604Z,94491
2017-12-16T07:45:04.815Z,94502
2017-12-16T07:50:33.078Z,94509
2017-12-16T07:56:02.195Z,94507
2017-12-16T08:01:30.442Z,94515
2017-12-16T08:06:58.627Z,94530
2017-12-16T08:12:26.796Z,94540
2017-12-16T08:17:54.980Z,94552
2017-12-16T08:23:25.273Z,94559
2017-12-16T08:28:53.467Z,94566
2017-12-16T08:34:22.742Z,94575
2017-12-16T08:39:51.022Z,94584
2017-12-16T08:45:19.214Z,94589
2017-12-16T08:50:48.213Z,94601
2017-12-16T08:56:16.393Z,94607
2017-12-16T09:01:44.637Z,94628
2017-12-16T09:07:12.883Z,94637
2017-12-16T09:12:41.078Z,94641
2017-12-16T09:18:09.299Z,94650
2017-12-16T09:23:37.486Z,94665
2017-12-16T09:29:06.594Z,94670
2017-12-16T09:34:34.779Z,94684
2017-12-16T09:40:03.251Z,94689
2017-12-16T09:45:31.436Z,94689
2017-12-16T09:51:00.580Z,94684
2017-12-16T09:56:28.798Z,94689
2017-12-16T10:01:57.006Z,94678
2017-12-16T10:07:25.188Z,94699
2017-12-16T10:12:54.361Z,94698
2017-12-16T10:18:22.609Z,94692
2017-12-16T10:23:50.814Z,94711
2017-12-16T10:29:19.056Z,94709
2017-12-16T10:35:00.730Z,94719
2017-12-16T10:40:28.914Z,94719
2017-12-16T10:45:57.146Z,94729
2017-12-16T10:51:25.336Z,94726
2017-12-16T10:56:57.367Z,94728
2017-12-16T11:02:30.042Z,94749
2017-12-16T11:07:59.289Z,94742
2017-12-16T11:13:29.172Z,94745
2017-12-16T11:18:57.348Z,94745
2017-12-16T11:24:25.543Z,94750
2017-12-16T11:29:53.862Z,94766
2017-12-16T11:35:22.095Z,94762
2017-12-16T11:40:50.288Z,94772
2017-12-16T11:46:18.567Z,94777
2017-12-16T11:51:46.945Z,94774
2017-12-16T11:57:15.278Z,94787
2017-12-16T12:02:45.456Z,94788
2017-12-16T12:08:13.670Z,94794
2017-12-16T12:13:41.864Z,94784
2017-12-16T12:19:10.121Z,94791
2017-12-16T12:24:38.351Z,94795
2017-12-16T12:30:06.587Z,94803
2017-12-16T12:35:35.579Z,94813
2017-12-16T12:41:03.802Z,94823
2017-12-16T12:46:32.026Z,94824
2017-12-16T12:52:01.330Z,94828
2017-12-16T12:57:29.519Z,94824
2017-12-16T13:02:58.568Z,94828
2017-12-16T13:08:26.756Z,94842
2017-12-16T13:13:55.890Z,94832
2017-12-16T13:19:24.088Z,94846
2017-12-16T13:24:53.352Z,94848
2017-12-16T13:30:21.527Z,94859
2017-12-16T13:35:49.719Z,94858
2017-12-16T13:41:17.922Z,94855
2017-12-16T13:46:46.122Z,94870
2017-12-16T13:52:19.501Z,94878
2017-12-16T13:57:48.767Z,94902
2017-12-16T14:03:17.823Z,94912
2017-12-16T14:08:46.881Z,94921
2017-12-16T14:14:15.063Z,94932
2017-12-16T14:19:43.275Z,94941
2017-12-16T14:25:11.454Z,94960
2017-12-16T14:30:39.640Z,94961
2017-12-16T14:36:08.666Z,94988
2017-12-16T14:41:37.756Z,94993
2017-12-16T14:47:05.937Z,95001
2017-12-16T14:52:35.863Z,95021
2017-12-16T14:58:04.079Z,95025
2017-12-16T15:03:36.384Z,95031
2017-12-16T15:09:04.628Z,95040
2017-12-16T15:14:32.913Z,95050
2017-12-16T15:20:01.125Z,95056
2017-12-16T15:25:35.787Z,95068
2017-12-16T15:31:04.779Z,95083
2017-12-16T15:36:33.014Z,95089
2017-12-16T15:42:01.243Z,95098
2017-12-16T15:47:29.470Z,95114
2017-12-16T15:52:57.694Z,95104
2017-12-16T15:58:25.929Z,95117
2017-12-16T16:03:55.901Z,95131
2017-12-16T16:09:24.889Z,95145
2017-12-16T16:14:53.158Z,95149
2017-12-16T16:20:22.192Z,95159
2017-12-16T16:25:52.372Z,95168
2017-12-16T16:31:21.397Z,95188
2017-12-16T16:36:54.067Z,95192
2017-12-16T16:42:27.235Z,95203
2017-12-16T16:48:04.238Z,95210
2017-12-16T16:53:32.465Z,95208
2017-12-16T16:59:00.669Z,95227
2017-12-16T17:04:30.101Z,95247
2017-12-16T17:09:58.376Z,95253
2017-12-16T17:15:26.565Z,95260
2017-12-16T17:20:56.925Z,95277
2017-12-16T17:26:25.170Z,95275
2017-12-16T17:31:55.329Z,95286
2017-12-16T17:37:23.503Z,95296
2017-12-16T17:42:52.447Z,95301
2017-12-16T17:48:21.413Z,95310
2017-12-16T17:53:49.594Z,95319
2017-12-16T17:59:21.468Z,95318
2017-12-16T18:04:49.696Z,95331
2017-12-16T18:10:17.931Z,95328
2017-12-16T18:15:46.125Z,95337
2017-12-16T18:21:14.325Z,95336
2017-12-16T18:26:42.517Z,95353
2017-12-16T18:32:11.533Z,95352
2017-12-16T18:37:39.733Z,95365
2017-12-16T18:43:07.936Z,95367
2017-12-16T18:48:36.129Z,95371
2017-12-16T18:54:04.389Z,95378
2017-12-16T18:59:32.599Z,95394
2017-12-16T19:05:01.061Z,95397
2017-12-16T19:10:29.287Z,95411
2017-12-16T19:15:57.492Z,95417
2017-12-16T19:21:25.745Z,95410
2017-12-16T19:26:54.003Z,95420
2017-12-16T19:32:22.221Z,95433
2017-12-16T19:37:50.410Z,95432
2017-12-16T19:43:19.633Z,95440
2017-12-16T19:48:47.847Z,95434
2017-12-16T19:54:16.059Z,95445
2017-12-16T19:59:44.262Z,95453
2017-12-16T20:05:12.494Z,95453
2017-12-16T20:10:40.710Z,95474
2017-12-16T20:16:08.888Z,95473
2017-12-16T20:21:38.676Z,95476
2017-12-16T20:27:10.929Z,95478
2017-12-16T20:32:39.193Z,95484
2017-12-16T20:38:07.433Z,95489
2017-12-16T20:43:35.752Z,95491
2017-12-16T20:49:04.104Z,95496
2017-12-16T20:54:33.660Z,95493
2017-12-16T21:00:01.975Z,95491
2017-12-16T21:05:31.443Z,95484
2017-12-16T21:10:59.687Z,95495
2017-12-16T21:16:28.683Z,95492
2017-12-16T21:21:56.940Z,95500
2017-12-16T21:27:25.769Z,95508
2017-12-16T21:32:53.993Z,95513
2017-12-16T21:38:22.216Z,95510
2017-12-16T21:43:50.423Z,95514
2017-12-16T21:49:18.610Z,95529
2017-12-16T21:54:46.809Z,95528
2017-12-16T22:00:15.003Z,95541
2017-12-16T22:05:43.211Z,95541
2017-12-16T22:11:11.406Z,95549
2017-12-16T22:16:39.595Z,95546
2017-12-16T22:22:07.867Z,95551
2017-12-16T22:27:36.096Z,95556
2017-12-16T22:33:04.281Z,95562
2017-12-16T22:38:32.522Z,95558
2017-12-16T22:44:00.748Z,95569
2017-12-16T22:49:29.895Z,95564
2017-12-16T22:54:58.113Z,95555
2017-12-16T23:00:26.306Z,95566
2017-12-16T23:05:54.811Z,95556
2017-12-16T23:11:23.070Z,95562
2017-12-16T23:16:51.389Z,95556
2017-12-16T23:22:20.541Z,95567
2017-12-16T23:27:48.759Z,95568
2017-12-16T23:33:18.072Z,95565
2017-12-16T23:38:51.836Z,95571
2017-12-16T23:44:20.149Z,95564
2017-12-16T23:49:51.193Z,95580
2017-12-16T23:55:19.376Z,95577
